Time;durP1;ratioP1;P1;durP2;ratioP2;P2;SDS_P1;SDS_P2;PMS_P1;PMS_P2;Temp;Humidity;BMP_temperature;BMP_pressure;BME280_temperature;BME280_humidity;BME280_pressure;Samples;Min_cycle;Max_cycle;Signal;HPM_P1;HPM_P2
2024/02/24 00:00:29;;;;;;;3.05;2.83;;;;;;;8.00;100.00;100220.50;5084963;28;20121;-74
2024/02/24 00:02:55;;;;;;;6.95;4.35;;;;;;;8.33;100.00;100255.59;5084768;28;20058;-74
2024/02/24 00:05:25;;;;;;;5.05;2.35;;;;;;;8.08;100.00;100231.00;5085955;28;20055;-74
2024/02/24 00:07:51;;;;;;;11.35;10.75;;;;;;;7.58;100.00;100164.47;5075817;28;20123;-72
2024/02/24 00:10:16;;;;;;;20.55;19.52;;;;;;;8.05;100.00;100231.88;5094109;28;20056;-73
2024/02/24 00:12:42;;;;;;;5.07;4.78;;;;;;;8.20;100.00;100245.06;5092494;28;21747;-74
2024/02/24 00:15:08;;;;;;;3.03;2.83;;;;;;;8.23;100.00;100247.69;5091189;28;20525;-73
2024/02/24 00:17:34;;;;;;;9.00;8.32;;;;;;;7.75;100.00;100161.97;5071079;28;20134;-74
2024/02/24 00:19:59;;;;;;;16.88;12.02;;;;;;;7.82;100.00;100205.59;5090045;28;20044;-73
2024/02/24 00:22:25;;;;;;;3.28;3.08;;;;;;;8.12;100.00;100248.47;5089073;28;20044;-75
2024/02/24 00:24:50;;;;;;;11.05;7.70;;;;;;;8.10;100.00;100258.03;5087365;28;20086;-72
2024/02/24 00:27:16;;;;;;;2.92;2.70;;;;;;;8.08;100.00;100250.19;5089004;28;20039;-74
2024/02/24 00:29:41;;;;;;;0.77;0.77;;;;;;;8.07;100.00;100258.00;5090291;28;20032;-74
2024/02/24 00:32:07;;;;;;;2.25;1.85;;;;;;;7.60;100.00;100181.03;5086368;28;20048;-73
2024/02/24 00:34:32;;;;;;;1.10;1.10;;;;;;;7.37;100.00;100160.84;5086696;28;20056;-73
2024/02/24 00:36:58;;;;;;;0.75;0.75;;;;;;;7.60;100.00;100187.13;5084047;28;20037;-72
2024/02/24 00:39:23;;;;;;;1.95;1.85;;;;;;;7.70;100.00;100237.72;5079145;28;20036;-72
2024/02/24 00:41:52;;;;;;;4.20;4.00;;;;;;;7.43;100.00;100173.06;5086999;28;20426;-75
2024/02/24 00:44:18;;;;;;;11.00;10.05;;;;;;;7.93;100.00;100265.75;5088087;28;20044;-74
2024/02/24 00:46:43;;;;;;;2.53;2.33;;;;;;;7.14;100.00;100219.72;5082800;28;20044;-75
2024/02/24 00:49:09;;;;;;;12.48;7.97;;;;;;;6.79;100.00;100245.41;5085929;28;20141;-75
2024/02/24 00:51:35;;;;;;;6.32;6.03;;;;;;;6.31;100.00;100159.66;5086591;28;20060;-74
2024/02/24 00:54:00;;;;;;;11.10;7.40;;;;;;;6.91;100.00;100264.69;5088645;28;20085;-74
2024/02/24 00:56:26;;;;;;;4.68;4.43;;;;;;;6.48;100.00;100161.59;5061672;28;20047;-73
2024/02/24 00:58:51;;;;;;;0.93;0.93;;;;;;;6.78;100.00;100197.59;5086754;28;20051;-74
2024/02/24 01:01:17;;;;;;;4.70;4.30;;;;;;;6.62;100.00;100147.00;5080627;28;20412;-73
2024/02/24 01:03:45;;;;;;;2.40;2.20;;;;;;;7.48;100.00;100246.19;5077698;28;20036;-74
2024/02/24 01:06:10;;;;;;;4.45;1.92;;;;;;;7.33;100.00;100244.31;5085273;28;20024;-74
2024/02/24 01:08:36;;;;;;;21.17;18.83;;;;;;;7.33;100.00;100263.44;5085894;28;20155;-74
2024/02/24 01:11:02;;;;;;;9.05;8.60;;;;;;;7.13;100.00;100262.34;5086811;28;20493;-74
2024/02/24 01:13:27;;;;;;;8.02;4.22;;;;;;;6.80;100.00;100248.03;5068659;28;20044;-74
2024/02/24 01:15:53;;;;;;;0.43;0.43;;;;;;;6.22;100.00;100162.13;5067768;28;20098;-73
2024/02/24 01:18:20;;;;;;;1.42;1.33;;;;;;;6.16;100.00;100154.25;5085163;28;20028;-73
2024/02/24 01:20:48;;;;;;;5.35;5.03;;;;;;;6.15;100.00;100133.38;5085375;28;20043;-74
2024/02/24 01:23:15;;;;;;;2.22;1.95;;;;;;;6.17;100.00;100136.88;5085730;28;20083;-74
2024/02/24 01:25:40;;;;;;;12.00;11.00;;;;;;;6.52;100.00;100232.03;5086817;28;20048;-74
2024/02/24 01:28:06;;;;;;;1.80;1.70;;;;;;;6.30;100.00;100220.44;5081713;28;20543;-73
2024/02/24 01:30:31;;;;;;;1.33;1.27;;;;;;;6.29;100.00;100246.47;5086332;28;20185;-73
2024/02/24 01:32:57;;;;;;;1.45;1.33;;;;;;;5.86;100.00;100160.72;5041725;28;1233258;-73
2024/02/24 01:35:22;;;;;;;0.47;0.47;;;;;;;6.57;100.00;100242.53;5084851;28;20530;-74
2024/02/24 01:37:48;;;;;;;13.95;13.10;;;;;;;6.54;100.00;100225.09;5082154;28;20530;-74
2024/02/24 01:40:15;;;;;;;4.18;3.90;;;;;;;6.61;100.00;100244.31;5083797;28;20411;-74
2024/02/24 01:42:44;;;;;;;0.52;0.52;;;;;;;6.45;100.00;100239.75;5088556;28;20048;-74
2024/02/24 01:45:11;;;;;;;1.20;1.20;;;;;;;6.79;100.00;100254.13;5086693;28;20114;-73
2024/02/24 01:47:37;;;;;;;2.20;0.82;;;;;;;6.61;100.00;100227.81;5068392;28;20032;-74
2024/02/24 01:50:03;;;;;;;24.20;20.67;;;;;;;6.82;100.00;100248.94;5067815;28;20051;-74
2024/02/24 01:52:29;;;;;;;3.00;2.83;;;;;;;5.76;100.00;100160.56;5086038;28;20048;-72
2024/02/24 01:54:59;;;;;;;0.52;0.52;;;;;;;5.97;100.00;100178.25;5076483;28;20071;-74
2024/02/24 01:57:25;;;;;;;1.38;1.27;;;;;;;5.63;100.00;100142.16;5059164;28;20052;-73
2024/02/24 01:59:51;;;;;;;0.70;0.70;;;;;;;6.18;100.00;100245.44;5085887;28;20060;-73
2024/02/24 02:02:16;;;;;;;6.13;5.88;;;;;;;6.04;100.00;100248.72;5082833;28;20072;-73
2024/02/24 02:04:42;;;;;;;0.90;0.90;;;;;;;6.21;100.00;100233.34;5083498;28;20050;-74
2024/02/24 02:07:07;;;;;;;0.55;0.55;;;;;;;6.55;100.00;100247.72;5083332;28;20051;-73
2024/02/24 02:09:33;;;;;;;1.58;1.48;;;;;;;6.31;100.00;100231.75;5059180;28;20068;-72
2024/02/24 02:11:59;;;;;;;0.45;0.45;;;;;;;6.05;100.00;100161.91;5046168;28;20079;-73
2024/02/24 02:14:24;;;;;;;1.83;1.73;;;;;;;6.08;100.00;100156.72;5084023;28;20083;-73
2024/02/24 02:16:51;;;;;;;1.02;1.02;;;;;;;6.04;100.00;100234.78;5085377;28;20071;-73
2024/02/24 02:19:17;;;;;;;0.60;0.60;;;;;;;5.29;100.00;100158.94;5084857;28;20051;-73
2024/02/24 02:21:44;;;;;;;7.43;7.03;;;;;;;4.98;100.00;100163.59;5085826;28;20044;-73
2024/02/24 02:24:11;;;;;;;1.63;1.55;;;;;;;5.68;100.00;100270.63;5080532;28;20054;-73
2024/02/24 02:26:36;;;;;;;0.40;0.40;;;;;;;5.52;100.00;100253.00;5086596;28;20105;-74
2024/02/24 02:29:02;;;;;;;3.85;3.65;;;;;;;5.65;100.00;100267.13;5086595;28;20483;-73
2024/02/24 02:31:28;;;;;;;4.80;4.57;;;;;;;5.18;100.00;100191.69;5059457;28;20056;-72
2024/02/24 02:33:53;;;;;;;2.25;2.15;;;;;;;5.87;100.00;100286.59;5084941;28;20051;-72
2024/02/24 02:36:19;;;;;;;0.57;0.57;;;;;;;5.01;100.00;100193.97;5087177;28;20032;-73
2024/02/24 02:38:44;;;;;;;10.82;6.13;;;;;;;5.44;100.00;100271.09;5093335;28;20074;-73
2024/02/24 02:41:10;;;;;;;3.85;3.65;;;;;;;5.59;100.00;100287.81;5092397;28;20486;-72
2024/02/24 02:43:35;;;;;;;2.15;2.05;;;;;;;5.01;100.00;100186.16;5085098;28;20052;-72
2024/02/24 02:46:01;;;;;;;16.77;15.98;;;;;;;5.55;100.00;100276.50;5087200;28;20065;-72
2024/02/24 02:48:27;;;;;;;3.17;2.97;;;;;;;5.06;100.00;100171.56;5085690;28;20067;-75
2024/02/24 02:50:52;;;;;;;0.57;0.57;;;;;;;5.02;100.00;100186.19;5085629;28;20024;-74
2024/02/24 02:53:18;;;;;;;1.30;1.20;;;;;;;5.19;100.00;100198.63;5062925;28;20487;-75
2024/02/24 02:55:43;;;;;;;0.60;0.60;;;;;;;5.76;100.00;100282.91;5085623;28;20565;-75
2024/02/24 02:58:11;;;;;;;2.45;2.05;;;;;;;5.40;100.00;100200.75;5085640;28;20040;-73
2024/02/24 03:00:36;;;;;;;0.95;0.95;;;;;;;5.77;100.00;100261.25;5083969;28;20055;-74
2024/02/24 03:03:02;;;;;;;6.63;4.82;;;;;;;5.66;100.00;100263.66;5086143;28;20035;-75
2024/02/24 03:05:28;;;;;;;0.50;0.50;;;;;;;5.81;100.00;100282.16;5077401;28;20079;-74
2024/02/24 03:07:54;;;;;;;1.02;0.60;;;;;;;5.06;100.00;100174.16;5063196;28;20192;-73
2024/02/24 03:10:19;;;;;;;5.45;5.15;;;;;;;5.57;100.00;100267.00;5082844;28;20510;-73
2024/02/24 03:12:45;;;;;;;9.32;8.60;;;;;;;5.23;100.00;100239.47;5081950;28;20443;-73
2024/02/24 03:15:10;;;;;;;1.42;1.33;;;;;;;4.91;100.00;100192.03;5081522;28;20026;-73
2024/02/24 03:17:36;;;;;;;7.88;7.35;;;;;;;4.81;100.00;100184.06;5078971;28;20058;-74
2024/02/24 03:20:03;;;;;;;0.70;0.70;;;;;;;5.41;100.00;100288.38;5067044;28;20177;-74
2024/02/24 03:22:29;;;;;;;2.83;2.72;;;;;;;5.49;100.00;100308.47;5082022;28;20134;-73
2024/02/24 03:24:54;;;;;;;14.85;11.93;;;;;;;5.39;100.00;100293.53;5076407;28;20055;-73
2024/02/24 03:27:20;;;;;;;2.58;2.45;;;;;;;5.42;100.00;100291.00;5082464;28;20035;-74
2024/02/24 03:29:45;;;;;;;1.48;1.38;;;;;;;4.78;100.00;100199.63;5079643;28;20455;-73
2024/02/24 03:32:11;;;;;;;0.88;0.88;;;;;;;4.78;100.00;100210.00;5083300;28;20511;-73
2024/02/24 03:34:37;;;;;;;1.00;1.00;;;;;;;4.66;100.00;100183.78;5085478;28;20067;-73
2024/02/24 03:37:04;;;;;;;1.23;1.23;;;;;;;5.41;100.00;100302.25;5085565;28;20064;-73
2024/02/24 03:39:29;;;;;;;2.13;2.03;;;;;;;5.48;100.00;100316.28;5084916;28;20136;-73
2024/02/24 03:41:55;;;;;;;2.17;2.05;;;;;;;5.72;100.00;100314.09;5065058;28;20483;-73
2024/02/24 03:44:20;;;;;;;3.65;2.50;;;;;;;4.65;100.00;100136.09;5072542;28;20061;-73
2024/02/24 03:46:46;;;;;;;0.40;0.40;;;;;;;5.24;100.00;100242.13;5084954;28;20063;-74
2024/02/24 03:49:11;;;;;;;2.05;1.60;;;;;;;5.07;100.00;100213.16;5066503;28;20506;-73
2024/02/24 03:51:37;;;;;;;0.60;0.60;;;;;;;5.13;100.00;100224.53;5080917;28;20040;-73
2024/02/24 03:54:02;;;;;;;1.75;1.65;;;;;;;5.60;100.00;100326.03;5080410;28;20034;-73
2024/02/24 03:56:28;;;;;;;4.78;4.47;;;;;;;4.86;100.00;100200.63;5062592;28;20048;-73
2024/02/24 03:58:54;;;;;;;1.45;1.35;;;;;;;5.71;100.00;100299.34;5085407;28;20044;-72
2024/02/24 04:01:19;;;;;;;8.73;8.05;;;;;;;5.55;100.00;100309.44;5080295;28;20087;-73
2024/02/24 04:03:45;;;;;;;1.20;1.15;;;;;;;5.82;100.00;100325.56;5084078;28;20036;-73
2024/02/24 04:06:10;;;;;;;3.60;3.33;;;;;;;5.80;100.00;100327.25;5085914;28;20024;-73
2024/02/24 04:08:36;;;;;;;23.40;13.02;;;;;;;5.71;100.00;100308.84;5079752;28;20032;-73
2024/02/24 04:11:02;;;;;;;1.10;0.60;;;;;;;5.41;100.00;100244.16;5087759;28;20583;-73
2024/02/24 04:13:27;;;;;;;1.05;1.05;;;;;;;5.21;100.00;100218.63;5069195;28;20078;-73
2024/02/24 04:15:53;;;;;;;2.10;2.05;;;;;;;5.35;100.00;100252.69;5072481;28;20044;-73
2024/02/24 04:18:20;;;;;;;1.65;1.42;;;;;;;5.58;100.00;100325.13;5081328;28;20028;-74
2024/02/24 04:20:46;;;;;;;4.35;4.03;;;;;;;5.37;100.00;100281.34;5086393;28;20158;-74
2024/02/24 04:23:13;;;;;;;1.38;1.27;;;;;;;5.38;100.00;100332.53;5065463;28;20044;-73
2024/02/24 04:25:38;;;;;;;3.05;2.85;;;;;;;5.40;100.00;100330.84;5088465;28;20044;-74
2024/02/24 04:28:05;;;;;;;19.17;18.02;;;;;;;5.60;100.00;100311.28;5069947;28;20400;-75
2024/02/24 04:30:30;;;;;;;0.88;0.88;;;;;;;5.64;100.00;100312.19;5086628;28;20040;-72
2024/02/24 04:32:57;;;;;;;4.28;4.07;;;;;;;5.66;100.00;100332.19;5087154;28;20052;-73
2024/02/24 04:35:23;;;;;;;10.70;10.07;;;;;;;5.29;100.00;100243.06;5088045;28;20052;-74
2024/02/24 04:37:50;;;;;;;9.93;9.27;;;;;;;5.20;100.00;100237.69;5084319;28;20040;-73
2024/02/24 04:40:16;;;;;;;7.63;7.22;;;;;;;5.41;100.00;100320.47;5082600;28;20780;-73
2024/02/24 04:42:41;;;;;;;5.53;5.07;;;;;;;5.26;100.00;100283.75;5088220;28;20032;-73
2024/02/24 04:45:07;;;;;;;1.25;0.88;;;;;;;5.06;100.00;100354.44;5088257;28;20032;-74
2024/02/24 04:47:33;;;;;;;3.33;3.20;;;;;;;4.54;100.00;100236.38;5086837;28;20501;-72
2024/02/24 04:50:00;;;;;;;1.30;1.25;;;;;;;4.95;100.00;100261.47;5088237;28;20359;-73
2024/02/24 04:52:26;;;;;;;6.68;6.03;;;;;;;5.50;100.00;100333.66;5086711;28;20036;-73
2024/02/24 04:54:52;;;;;;;6.57;6.20;;;;;;;5.66;100.00;100363.44;5088392;28;20139;-72
2024/02/24 04:57:19;;;;;;;3.42;3.20;;;;;;;5.83;100.00;100365.47;5087580;28;20032;-74
2024/02/24 04:59:44;;;;;;;4.82;4.38;;;;;;;5.28;100.00;100259.50;5087353;28;20036;-74
2024/02/24 05:02:10;;;;;;;1.95;1.83;;;;;;;5.63;100.00;100320.88;5087772;28;20055;-75
2024/02/24 05:04:35;;;;;;;1.65;1.55;;;;;;;5.08;100.00;100253.06;5089105;28;20078;-73
2024/02/24 05:07:02;;;;;;;5.68;5.38;;;;;;;5.15;100.00;100265.34;5072838;28;20035;-74
2024/02/24 05:09:28;;;;;;;1.85;1.75;;;;;;;5.80;100.00;100389.75;5088699;28;20054;-75
2024/02/24 05:11:53;;;;;;;0.90;0.77;;;;;;;5.16;100.00;100391.06;5089527;28;20036;-73
2024/02/24 05:14:19;;;;;;;10.30;9.63;;;;;;;4.52;100.00;100297.81;5081166;28;20044;-72
2024/02/24 05:16:45;;;;;;;2.85;2.65;;;;;;;5.15;100.00;100397.09;5082235;28;20154;-74
2024/02/24 05:19:11;;;;;;;6.05;5.60;;;;;;;4.75;100.00;100346.81;5087623;28;20115;-74
2024/02/24 05:21:37;;;;;;;1.85;1.75;;;;;;;4.80;100.00;100301.91;5089123;28;20479;-74
2024/02/24 05:24:03;;;;;;;3.60;3.35;;;;;;;5.51;100.00;100404.81;5084537;28;20049;-74
2024/02/24 05:26:29;;;;;;;3.20;3.03;;;;;;;5.77;100.00;100389.69;5086943;28;20519;-75
2024/02/24 05:28:56;;;;;;;0.90;0.90;;;;;;;5.35;100.00;100302.13;5064198;28;20488;-75
2024/02/24 05:31:22;;;;;;;2.22;2.13;;;;;;;5.79;100.00;100374.97;5081182;28;20138;-74
2024/02/24 05:33:50;;;;;;;24.40;22.95;;;;;;;5.20;100.00;100296.66;5085626;28;20047;-74
2024/02/24 05:36:16;;;;;;;5.05;4.35;;;;;;;5.90;100.00;100399.50;5086533;28;20035;-73
2024/02/24 05:38:42;;;;;;;4.55;4.32;;;;;;;5.79;100.00;100382.78;5087717;28;20030;-74
2024/02/24 05:41:08;;;;;;;8.43;7.68;;;;;;;5.26;100.00;100344.44;5068763;28;20134;-73
2024/02/24 05:43:34;;;;;;;4.13;3.83;;;;;;;5.74;100.00;100370.56;5068584;28;20582;-74
2024/02/24 05:46:03;;;;;;;0.75;0.75;;;;;;;6.05;100.00;100421.50;5085981;28;20048;-74
2024/02/24 05:48:35;;;;;;;6.47;6.03;;;;;;;5.35;100.00;100316.88;5086615;28;20816;-74
2024/02/24 05:51:01;;;;;;;5.47;3.45;;;;;;;5.51;100.00;100313.72;5086171;28;20047;-73
2024/02/24 05:53:27;;;;;;;0.45;0.43;;;;;;;6.28;100.00;100417.56;5080772;28;20047;-74
2024/02/24 05:55:53;;;;;;;1.05;1.05;;;;;;;5.32;100.00;100335.03;5090470;28;20040;-74
2024/02/24 05:58:18;;;;;;;4.50;4.30;;;;;;;5.81;100.00;100427.09;5081957;28;20083;-73
2024/02/24 06:00:44;;;;;;;0.88;0.88;;;;;;;5.82;100.00;100410.59;5077852;28;20148;-73
2024/02/24 06:03:11;;;;;;;2.40;2.20;;;;;;;5.55;100.00;100345.88;5082292;28;20357;-73
2024/02/24 06:05:38;;;;;;;6.72;6.38;;;;;;;5.55;100.00;100357.19;5086656;28;20031;-73
2024/02/24 06:08:05;;;;;;;2.47;2.40;;;;;;;5.75;100.00;100361.88;5079898;28;20135;-73
2024/02/24 06:10:30;;;;;;;2.60;2.47;;;;;;;5.79;100.00;100358.50;5084523;28;20052;-74
2024/02/24 06:12:56;;;;;;;1.95;1.85;;;;;;;6.28;100.00;100438.41;5085296;28;20077;-73
2024/02/24 06:15:21;;;;;;;2.15;2.05;;;;;;;6.33;100.00;100421.13;5084043;28;20042;-73
2024/02/24 06:17:47;;;;;;;2.85;2.67;;;;;;;6.74;100.00;100448.72;5086655;28;20062;-74
2024/02/24 06:20:13;;;;;;;4.32;4.13;;;;;;;6.81;100.00;100402.75;5086625;28;20044;-74
2024/02/24 06:22:38;;;;;;;2.42;2.22;;;;;;;6.95;100.00;100412.56;5079615;28;20036;-74
2024/02/24 06:25:05;;;;;;;11.40;6.70;;;;;;;6.30;100.00;100279.50;5085837;28;20032;-74
2024/02/24 06:27:31;;;;;;;4.47;4.15;;;;;;;6.93;100.00;100440.38;5066622;28;20704;-75
2024/02/24 06:29:57;;;;;;;1.15;1.13;;;;;;;7.23;100.00;100422.50;5085767;28;20414;-75
2024/02/24 06:32:23;;;;;;;7.22;1.35;;;;;;;6.97;100.00;100410.84;5080984;28;20446;-75
2024/02/24 06:34:48;;;;;;;7.53;7.13;;;;;;;6.61;100.00;100329.47;5083598;28;20043;-75
2024/02/24 06:37:14;;;;;;;4.05;3.85;;;;;;;7.18;100.00;100446.78;5087299;28;20107;-75
2024/02/24 06:39:40;;;;;;;5.07;3.42;;;;;;;7.29;100.00;100409.56;5086159;28;20361;-73
2024/02/24 06:42:05;;;;;;;8.82;8.02;;;;;;;7.45;100.00;100366.25;5089119;28;20066;-74
2024/02/24 06:44:31;;;;;;;7.05;6.40;;;;;;;7.85;100.00;100432.88;5086763;28;20047;-74
2024/02/24 06:46:56;;;;;;;1.38;1.30;;;;;;;8.10;100.00;100434.03;5084727;28;20054;-74
2024/02/24 06:49:22;;;;;;;1.15;1.05;;;;;;;7.53;100.00;100343.69;5085777;28;20123;-74
2024/02/24 06:51:47;;;;;;;29.25;18.40;;;;;;;7.90;100.00;100352.81;5086835;28;20052;-75
2024/02/24 06:54:13;;;;;;;3.65;3.28;;;;;;;8.10;100.00;100391.31;5080000;28;20077;-74
2024/02/24 06:56:38;;;;;;;7.15;6.72;;;;;;;8.25;100.00;100415.00;5086291;28;20062;-73
2024/02/24 06:59:06;;;;;;;7.72;4.18;;;;;;;8.01;100.00;100366.84;5085424;28;20040;-73
2024/02/24 07:01:35;;;;;;;5.82;5.40;;;;;;;8.36;100.00;100413.34;5087555;28;20062;-75
2024/02/24 07:04:01;;;;;;;11.68;7.10;;;;;;;8.07;100.00;100337.28;5084733;28;20058;-72
2024/02/24 07:06:28;;;;;;;1.92;1.85;;;;;;;8.90;100.00;100428.59;5083137;28;20081;-74
2024/02/24 07:08:54;;;;;;;0.90;0.88;;;;;;;8.58;100.00;100356.91;5074022;28;20028;-75
2024/02/24 07:11:19;;;;;;;0.90;0.70;;;;;;;9.37;100.00;100449.88;5062370;28;20450;-73
2024/02/24 07:13:45;;;;;;;1.20;1.13;;;;;;;8.97;100.00;100339.72;5084691;28;20298;-73
2024/02/24 07:16:11;;;;;;;11.02;9.77;;;;;;;9.72;100.00;100441.31;5074403;28;20044;-73
2024/02/24 07:18:37;;;;;;;2.85;2.17;;;;;;;9.85;100.00;100440.47;5070481;28;20090;-73
2024/02/24 07:21:03;;;;;;;10.27;9.45;;;;;;;10.01;100.00;100409.06;5083774;28;20487;-74
2024/02/24 07:23:29;;;;;;;2.55;2.38;;;;;;;10.23;100.00;100433.56;5069952;28;20054;-74
2024/02/24 07:25:55;;;;;;;1.33;0.85;;;;;;;10.35;100.00;100437.13;5080020;28;20533;-75
2024/02/24 07:28:21;;;;;;;9.40;7.78;;;;;;;10.32;100.00;100423.13;5080984;28;20060;-74
2024/02/24 07:30:48;;;;;;;6.95;6.30;;;;;;;10.20;100.00;100386.38;5080277;28;20051;-73
2024/02/24 07:33:13;;;;;;;6.13;2.95;;;;;;;10.09;100.00;100352.25;5085700;28;20769;-72
2024/02/24 07:35:40;;;;;;;6.07;5.47;;;;;;;10.68;100.00;100450.28;5084797;28;20130;-73
2024/02/24 07:38:06;;;;;;;1.08;1.02;;;;;;;10.20;100.00;100360.16;5062149;28;20115;-71
2024/02/24 07:40:34;;;;;;;14.98;11.90;;;;;;;10.67;100.00;100452.00;5081776;28;20151;-73
2024/02/24 07:43:02;;;;;;;1.30;1.20;;;;;;;10.17;100.00;100350.53;5079534;28;20151;-74
2024/02/24 07:45:28;;;;;;;12.23;11.10;;;;;;;10.86;100.00;100428.38;5076206;28;20025;-76
2024/02/24 07:47:54;;;;;;;2.38;2.17;;;;;;;11.10;100.00;100441.50;5084729;28;20032;-74
2024/02/24 07:50:20;;;;;;;0.30;0.30;;;;;;;11.26;100.00;100439.72;5075845;28;20045;-75
2024/02/24 07:52:46;;;;;;;10.23;9.15;;;;;;;11.33;100.00;100409.03;5055405;28;20510;-75
2024/02/24 07:55:12;;;;;;;9.63;8.65;;;;;;;11.64;100.00;100441.34;5077236;28;20099;-77
2024/02/24 07:57:38;;;;;;;16.95;10.35;;;;;;;11.73;100.00;100441.31;5085642;28;20040;-75
2024/02/24 08:00:05;;;;;;;7.40;6.80;;;;;;;11.24;100.00;100341.66;5081784;28;20060;-76
2024/02/24 08:02:34;;;;;;;12.60;11.57;;;;;;;11.42;100.00;100345.94;5066075;28;20044;-76
2024/02/24 08:04:59;;;;;;;4.95;4.45;;;;;;;11.50;100.00;100338.91;5084752;28;20097;-76
2024/02/24 08:07:25;;;;;;;8.27;6.53;;;;;;;12.19;100.00;100438.44;5079613;28;20526;-77
2024/02/24 08:09:53;;;;;;;6.47;5.88;;;;;;;12.41;100.00;100440.97;5079913;28;20048;-77
2024/02/24 08:12:19;;;;;;;6.10;5.25;;;;;;;11.67;100.00;100291.50;5083043;28;20034;-76
2024/02/24 08:14:44;;;;;;;6.82;6.13;;;;;;;12.46;100.00;100411.06;5080915;28;20023;-75
2024/02/24 08:17:10;;;;;;;8.35;5.85;;;;;;;12.72;100.00;100414.38;5084557;28;20039;-77
2024/02/24 08:19:36;;;;;;;5.43;4.03;;;;;;;12.65;100.00;100376.72;5083972;28;20082;-76
2024/02/24 08:22:02;;;;;;;8.05;4.03;;;;;;;12.55;100.00;100344.34;5084444;28;20124;-76
2024/02/24 08:24:28;;;;;;;5.55;5.07;;;;;;;12.56;100.00;100326.78;5089907;28;20040;-74
2024/02/24 08:26:53;;;;;;;10.40;6.35;;;;;;;13.03;100.00;100400.03;5082963;28;20116;-73
2024/02/24 08:29:19;;;;;;;7.60;4.53;;;;;;;12.81;100.00;100344.06;5082853;28;20126;-74
2024/02/24 08:31:45;;;;;;;4.40;4.00;;;;;;;13.06;100.00;100365.75;5082741;28;20044;-74
2024/02/24 08:34:12;;;;;;;4.05;3.20;;;;;;;13.15;100.00;100366.53;5085338;28;20043;-74
2024/02/24 08:36:37;;;;;;;3.08;2.78;;;;;;;13.67;100.00;100439.75;5064998;28;20040;-73
2024/02/24 08:39:03;;;;;;;7.93;5.00;;;;;;;13.49;100.00;100341.56;5085904;28;20564;-73
2024/02/24 08:41:33;;;;;;;11.52;6.85;;;;;;;14.01;100.00;100423.50;5077925;28;20044;-73
2024/02/24 08:44:02;;;;;;;2.97;2.67;;;;;;;14.10;100.00;100436.56;5074619;28;20754;-73
2024/02/24 08:46:28;;;;;;;6.47;3.95;;;;;;;14.24;100.00;100418.75;5069491;28;20139;-73
2024/02/24 08:48:54;;;;;;;6.93;4.63;;;;;;;14.30;100.00;100359.72;5083052;28;20039;-75
2024/02/24 08:51:21;;;;;;;7.38;6.47;;;;;;;14.94;100.00;100435.25;5078513;28;20467;-75
2024/02/24 08:53:48;;;;;;;6.22;3.97;;;;;;;15.11;100.00;100439.38;5085231;28;20028;-73
2024/02/24 08:56:21;;;;;;;4.50;4.10;;;;;;;14.78;100.00;100410.88;5085150;28;20032;-74
2024/02/24 08:58:47;;;;;;;7.38;5.65;;;;;;;15.08;100.00;100442.94;5083816;28;20174;-74
2024/02/24 09:01:17;;;;;;;3.63;3.33;;;;;;;14.74;99.79;100366.03;5084622;28;20047;-74
2024/02/24 09:03:42;;;;;;;4.43;3.58;;;;;;;15.02;97.09;100371.69;5082837;28;20049;-75
2024/02/24 09:06:08;;;;;;;12.77;3.72;;;;;;;15.38;93.96;100435.31;5083601;28;20051;-74
2024/02/24 09:08:34;;;;;;;19.52;10.15;;;;;;;14.97;95.81;100355.06;5081035;28;22681;-73
2024/02/24 09:11:00;;;;;;;6.32;4.38;;;;;;;15.03;97.39;100349.66;5062679;28;20138;-73
2024/02/24 09:13:26;;;;;;;5.13;4.65;;;;;;;14.94;97.67;100324.28;5083062;28;20104;-74
2024/02/24 09:15:52;;;;;;;4.72;4.10;;;;;;;15.48;96.81;100404.31;5067021;28;20134;-73
2024/02/24 09:18:17;;;;;;;6.80;3.70;;;;;;;15.24;95.83;100352.75;5076298;28;20111;-75
2024/02/24 09:20:44;;;;;;;4.80;4.25;;;;;;;15.54;96.61;100375.06;5086573;28;20697;-75
2024/02/24 09:23:09;;;;;;;8.73;4.43;;;;;;;15.52;92.69;100358.34;5085456;28;20052;-75
2024/02/24 09:25:35;;;;;;;5.93;3.40;;;;;;;15.27;92.12;100342.16;5074211;28;20043;-75
2024/02/24 09:28:01;;;;;;;2.90;2.10;;;;;;;16.08;92.08;100443.59;5082972;28;20044;-74
2024/02/24 09:30:27;;;;;;;4.97;2.85;;;;;;;15.72;90.09;100345.59;5063780;28;20032;-74
2024/02/24 09:32:53;;;;;;;3.95;3.63;;;;;;;15.69;87.68;100363.31;5088924;28;20145;-75
2024/02/24 09:35:26;;;;;;;5.88;3.95;;;;;;;15.97;89.22;100353.88;5085431;28;20097;-74
2024/02/24 09:37:52;;;;;;;4.10;3.42;;;;;;;16.45;89.13;100438.31;5086507;28;20062;-73
2024/02/24 09:40:17;;;;;;;4.05;2.53;;;;;;;16.49;88.93;100444.44;5074353;28;20404;-75
2024/02/24 09:42:43;;;;;;;6.85;4.38;;;;;;;16.03;89.21;100364.28;5074950;28;20036;-74
2024/02/24 09:45:15;;;;;;;3.72;3.22;;;;;;;16.60;89.43;100409.72;5073982;28;20131;-74
2024/02/24 09:47:42;;;;;;;2.90;2.70;;;;;;;16.34;86.37;100368.88;5064991;28;20065;-75
2024/02/24 09:50:10;;;;;;;2.85;2.55;;;;;;;16.73;80.04;100442.09;5077588;28;20052;-73
2024/02/24 09:52:35;;;;;;;2.38;2.17;;;;;;;16.17;83.04;100363.97;5080279;28;20047;-76
2024/02/24 09:55:03;;;;;;;4.80;4.35;;;;;;;16.80;82.40;100449.88;5073673;28;20094;-75
2024/02/24 09:57:34;;;;;;;1.38;1.20;;;;;;;16.30;81.77;100355.75;5070975;28;20561;-75
2024/02/24 10:00:01;;;;;;;3.92;3.60;;;;;;;16.56;81.03;100365.69;5065079;28;20377;-73
2024/02/24 10:02:27;;;;;;;4.20;3.80;;;;;;;16.88;81.38;100421.41;5073795;28;20120;-76
2024/02/24 10:04:53;;;;;;;3.05;2.78;;;;;;;16.49;78.62;100359.69;5080184;28;20101;-74
2024/02/24 10:07:19;;;;;;;13.07;6.93;;;;;;;16.55;78.36;100333.03;5082760;28;20074;-74
2024/02/24 10:09:44;;;;;;;3.15;2.25;;;;;;;17.24;76.70;100434.59;5062668;28;20032;-75
2024/02/24 10:12:10;;;;;;;2.67;2.42;;;;;;;16.90;76.75;100349.78;5045714;28;20070;-73
2024/02/24 10:14:35;;;;;;;3.83;2.25;;;;;;;17.32;77.70;100422.91;5081620;28;20480;-75
2024/02/24 10:17:02;;;;;;;2.80;1.58;;;;;;;17.06;75.78;100358.19;5084002;28;20079;-74
2024/02/24 10:19:32;;;;;;;2.53;2.03;;;;;;;17.07;77.85;100432.41;5060958;28;20048;-74
2024/02/24 10:22:04;;;;;;;1.90;1.70;;;;;;;17.40;72.73;100431.53;5057495;28;20089;-75
2024/02/24 10:24:30;;;;;;;1.60;1.50;;;;;;;17.30;73.73;100356.63;5054867;28;20586;-74
2024/02/24 10:26:56;;;;;;;2.50;2.25;;;;;;;17.51;74.35;100403.78;5084729;28;20032;-75
2024/02/24 10:29:30;;;;;;;1.85;1.67;;;;;;;17.64;73.83;100401.63;5078993;28;20056;-74
2024/02/24 10:31:59;;;;;;;2.00;1.30;;;;;;;17.67;76.20;100428.06;5067970;28;20087;-74
2024/02/24 10:34:28;;;;;;;1.52;1.08;;;;;;;17.72;68.48;100431.50;5063075;28;20048;-75
2024/02/24 10:37:00;;;;;;;1.13;1.02;;;;;;;17.79;65.15;100425.97;5073783;28;20047;-73
2024/02/24 10:39:26;;;;;;;3.83;2.67;;;;;;;17.59;66.43;100357.59;5082749;28;20550;-74
2024/02/24 10:41:53;;;;;;;1.25;1.08;;;;;;;18.08;65.31;100420.69;5083657;28;20730;-74
2024/02/24 10:44:21;;;;;;;3.80;2.83;;;;;;;17.93;64.36;100329.13;5080100;28;20052;-71
2024/02/24 10:46:49;;;;;;;3.67;1.92;;;;;;;18.56;61.37;100417.38;5078410;28;20052;-70
2024/02/24 10:49:15;;;;;;;0.65;0.63;;;;;;;18.18;62.05;100354.88;5079317;28;20492;-71
2024/02/24 10:51:45;;;;;;;3.58;2.05;;;;;;;18.62;62.88;100367.63;5083381;28;20071;-71
2024/02/24 10:54:16;;;;;;;2.42;1.92;;;;;;;18.04;63.75;100320.81;5070866;28;20519;-73
2024/02/24 10:56:43;;;;;;;3.80;3.15;;;;;;;19.43;60.68;100396.66;5061740;28;20307;-71
2024/02/24 10:59:10;;;;;;;1.33;0.85;;;;;;;19.74;56.48;100411.56;5055058;28;20052;-72
2024/02/24 11:01:44;;;;;;;2.00;1.85;;;;;;;19.60;55.98;100393.41;5080653;28;20037;-74
2024/02/24 11:04:13;;;;;;;2.35;2.17;;;;;;;20.05;54.62;100405.03;5072089;28;20052;-72
2024/02/24 11:07:00;;;;;;;3.15;1.52;;;;;;;20.19;55.36;100405.34;5076574;28;20547;-76
2024/02/24 11:09:38;;;;;;;1.60;1.50;;;;;;;20.06;55.05;100404.09;5064780;28;20060;-75
2024/02/24 11:12:04;;;;;;;6.32;1.58;;;;;;;20.33;54.45;100389.69;5069956;28;20038;-75
2024/02/24 11:14:34;;;;;;;1.85;1.02;;;;;;;20.15;52.84;100289.19;5077749;28;20039;-75
2024/02/24 11:17:03;;;;;;;1.20;1.10;;;;;;;20.30;52.01;100365.84;5058638;28;20115;-74